createdAt,value
2023-11-19T00:01:04.083Z,86.86
2023-11-19T00:04:06.288Z,87.67
2023-11-19T00:07:09.768Z,87.54
2023-11-19T00:10:12.675Z,87.38
2023-11-19T00:13:14.817Z,88.50
2023-11-19T00:16:17.015Z,88.27
2023-11-19T00:19:19.433Z,88.48
2023-11-19T00:22:23.210Z,88.68
2023-11-19T00:25:25.098Z,88.80
2023-11-19T00:28:27.091Z,88.52
2023-11-19T00:31:29.307Z,87.99
2023-11-19T00:34:31.321Z,87.97
2023-11-19T00:37:35.119Z,88.94
2023-11-19T00:40:36.967Z,89.21
2023-11-19T00:43:39.076Z,88.93
2023-11-19T00:46:41.140Z,88.85
2023-11-19T00:49:42.945Z,89.22
2023-11-19T00:52:48.102Z,88.17
2023-11-19T00:55:50.013Z,88.89
2023-11-19T00:58:52.398Z,89.29
2023-11-19T01:01:54.114Z,89.97
2023-11-19T01:04:55.991Z,88.93
2023-11-19T01:07:59.962Z,89.55
2023-11-19T01:11:02.171Z,89.09
2023-11-19T01:14:04.180Z,88.92
2023-11-19T01:17:06.371Z,89.59
2023-11-19T01:20:09.185Z,90.05
2023-11-19T01:23:12.413Z,90.49
2023-11-19T01:26:15.281Z,89.55
2023-11-19T01:29:18.004Z,90.80
2023-11-19T01:32:20.000Z,89.40
2023-11-19T01:35:22.953Z,90.30
2023-11-19T01:38:27.929Z,90.89
2023-11-19T01:41:29.767Z,90.71
2023-11-19T01:44:31.872Z,90.98
2023-11-19T01:47:40.730Z,90.67
2023-11-19T01:50:42.787Z,90.07
2023-11-19T01:53:46.436Z,90.42
2023-11-19T01:56:48.601Z,89.67
2023-11-19T01:59:51.283Z,89.52
2023-11-19T02:02:53.747Z,90.26
2023-11-19T02:05:55.846Z,89.82
2023-11-19T02:08:59.188Z,90.33
2023-11-19T02:12:01.573Z,89.86
2023-11-19T02:15:05.272Z,89.32
2023-11-19T02:18:22.023Z,90.39
2023-11-19T02:21:23.886Z,89.41
2023-11-19T02:24:31.869Z,89.98
2023-11-19T02:27:45.668Z,88.60
2023-11-19T02:30:47.795Z,88.97
2023-11-19T02:33:49.906Z,89.44
2023-11-19T02:36:52.212Z,89.28
2023-11-19T02:39:55.586Z,89.26
2023-11-19T02:42:59.286Z,89.81
2023-11-19T02:46:02.792Z,90.63
2023-11-19T02:49:04.879Z,90.03
2023-11-19T02:52:07.924Z,90.74
2023-11-19T02:55:10.231Z,89.85
2023-11-19T02:58:13.618Z,90.58
2023-11-19T03:01:22.491Z,89.97
2023-11-19T03:04:24.750Z,89.30
2023-11-19T03:07:28.120Z,89.76
2023-11-19T03:10:30.491Z,90.15
2023-11-19T03:13:34.006Z,89.82
2023-11-19T03:16:36.366Z,89.55
2023-11-19T03:19:38.291Z,90.36
2023-11-19T03:22:40.556Z,89.30
2023-11-19T03:25:42.280Z,89.96
2023-11-19T03:28:46.739Z,89.52
2023-11-19T03:31:48.977Z,90.27
2023-11-19T03:34:51.563Z,90.42
2023-11-19T03:37:53.438Z,89.37
2023-11-19T03:40:55.410Z,89.61
2023-11-19T03:44:00.086Z,89.32
2023-11-19T03:47:08.818Z,89.76
2023-11-19T03:50:11.127Z,90.10
2023-11-19T03:53:13.783Z,89.69
2023-11-19T03:56:16.233Z,89.70
2023-11-19T03:59:19.870Z,90.41
2023-11-19T04:02:22.664Z,90.69
2023-11-19T04:05:24.860Z,90.30
2023-11-19T04:08:26.697Z,90.19
2023-11-19T04:11:29.499Z,90.28
2023-11-19T04:14:34.093Z,90.62
2023-11-19T04:17:36.466Z,90.45
2023-11-19T04:20:38.446Z,90.19
2023-11-19T04:23:40.522Z,90.64
2023-11-19T04:26:42.857Z,90.63
2023-11-19T04:29:46.577Z,91.42
2023-11-19T04:32:48.612Z,90.89
2023-11-19T04:35:50.449Z,90.34
2023-11-19T04:38:52.542Z,90.92
2023-11-19T04:41:54.475Z,91.03
2023-11-19T04:44:59.725Z,91.05
2023-11-19T04:48:01.905Z,91.28
2023-11-19T04:51:06.147Z,90.52
2023-11-19T04:54:08.197Z,90.39
2023-11-19T04:57:11.145Z,91.31
2023-11-19T05:00:17.680Z,90.65
2023-11-19T05:03:19.936Z,90.60
2023-11-19T05:06:22.803Z,91.09
2023-11-19T05:09:25.374Z,90.80
2023-11-19T05:12:28.227Z,90.18
2023-11-19T05:15:31.838Z,90.05
2023-11-19T05:18:33.953Z,90.36
2023-11-19T05:21:36.372Z,90.13
2023-11-19T05:24:38.471Z,89.69
2023-11-19T05:27:40.623Z,89.57
2023-11-19T05:30:45.426Z,90.64
2023-11-19T05:33:47.852Z,89.68
2023-11-19T05:36:50.011Z,90.62
2023-11-19T05:39:52.229Z,89.61
2023-11-19T05:42:55.028Z,89.80
2023-11-19T05:45:58.888Z,89.86
2023-11-19T05:49:01.064Z,89.67
2023-11-19T05:52:03.614Z,89.91
2023-11-19T05:55:06.226Z,90.67
2023-11-19T05:58:08.812Z,90.91
2023-11-19T06:01:12.947Z,90.59
2023-11-19T06:04:14.888Z,90.36
2023-11-19T06:07:18.770Z,89.84
2023-11-19T06:10:20.811Z,90.31
2023-11-19T06:13:25.273Z,90.53
2023-11-19T06:16:28.957Z,89.77
2023-11-19T06:19:32.426Z,90.27
2023-11-19T06:22:34.534Z,89.96
2023-11-19T06:25:36.764Z,90.36
2023-11-19T06:28:38.764Z,90.56
2023-11-19T06:31:48.582Z,89.61
2023-11-19T06:34:50.459Z,90.08
2023-11-19T06:37:57.056Z,89.49
2023-11-19T06:40:59.565Z,89.61
2023-11-19T06:44:02.034Z,90.75
2023-11-19T06:47:06.759Z,90.23
2023-11-19T06:50:09.771Z,90.00
2023-11-19T06:53:12.111Z,90.54
2023-11-19T06:56:22.714Z,90.67
2023-11-19T06:59:25.259Z,90.87
2023-11-19T07:02:29.259Z,91.07
2023-11-19T07:05:32.081Z,90.33
2023-11-19T07:08:34.155Z,90.65
2023-11-19T07:11:36.586Z,90.38
2023-11-19T07:14:38.439Z,91.14
2023-11-19T07:17:43.163Z,90.93
2023-11-19T07:20:45.629Z,90.92
2023-11-19T07:23:48.919Z,90.67
2023-11-19T07:26:51.036Z,90.09
2023-11-19T07:29:53.347Z,91.04
2023-11-19T07:32:57.261Z,90.26
2023-11-19T07:35:59.052Z,90.31
2023-11-19T07:39:01.642Z,90.82
2023-11-19T07:42:03.792Z,90.16
2023-11-19T07:45:07.583Z,90.21
2023-11-19T07:48:11.113Z,89.52
2023-11-19T07:51:13.645Z,90.39
2023-11-19T07:54:15.718Z,90.22
2023-11-19T07:57:17.910Z,90.27
2023-11-19T08:00:20.004Z,89.71
2023-11-19T08:03:23.583Z,89.43
2023-11-19T08:06:25.961Z,89.69
2023-11-19T08:09:27.897Z,88.97
2023-11-19T08:12:29.892Z,89.69
2023-11-19T08:15:32.969Z,89.40
2023-11-19T08:18:36.432Z,89.32
2023-11-19T08:21:38.919Z,88.97
2023-11-19T08:24:40.800Z,89.33
2023-11-19T08:27:42.838Z,89.40
2023-11-19T08:30:44.879Z,88.94
2023-11-19T08:33:48.048Z,88.70
2023-11-19T08:36:51.986Z,88.99
2023-11-19T08:39:54.111Z,89.48
2023-11-19T08:42:55.851Z,89.75
2023-11-19T08:45:57.736Z,88.67
2023-11-19T08:49:01.530Z,89.30
2023-11-19T08:52:03.612Z,88.99
2023-11-19T08:55:07.687Z,89.65
2023-11-19T08:58:11.131Z,89.32
2023-11-19T09:01:12.878Z,88.78
2023-11-19T09:04:16.708Z,89.33
2023-11-19T09:07:18.614Z,89.48
2023-11-19T09:10:20.375Z,88.31
2023-11-19T09:13:22.723Z,89.61
2023-11-19T09:16:26.216Z,89.27
2023-11-19T09:19:29.621Z,88.95
2023-11-19T09:22:31.689Z,88.28
2023-11-19T09:25:45.425Z,88.92
2023-11-19T09:28:47.808Z,88.86
2023-11-19T09:31:49.709Z,89.28
2023-11-19T09:34:53.338Z,89.77
2023-11-19T09:37:55.148Z,88.61
2023-11-19T09:40:57.780Z,88.62
2023-11-19T09:43:59.346Z,88.20
2023-11-19T09:47:08.165Z,89.21
2023-11-19T09:50:17.435Z,89.89
2023-11-19T09:53:19.644Z,89.16
2023-11-19T09:56:23.489Z,89.99
2023-11-19T09:59:26.039Z,90.02
2023-11-19T10:02:31.407Z,89.20
2023-11-19T10:05:35.479Z,89.18
2023-11-19T10:08:40.186Z,89.42
2023-11-19T10:11:43.844Z,89.04
2023-11-19T10:14:48.409Z,89.88
2023-11-19T10:17:50.268Z,89.77
2023-11-19T10:20:54.278Z,89.85
2023-11-19T10:23:57.967Z,89.23
2023-11-19T10:27:00.673Z,89.72
2023-11-19T10:30:03.245Z,89.56
2023-11-19T10:33:07.083Z,89.10
2023-11-19T10:36:11.030Z,89.31
2023-11-19T10:39:12.889Z,89.87
2023-11-19T10:42:17.061Z,90.30
2023-11-19T10:45:25.334Z,89.59
2023-11-19T10:48:28.030Z,90.15
2023-11-19T10:51:33.298Z,88.83
2023-11-19T10:54:35.692Z,89.35
2023-11-19T10:57:41.384Z,90.12
2023-11-19T11:00:45.986Z,88.88
2023-11-19T11:03:49.003Z,89.60
2023-11-19T11:06:52.722Z,89.42
2023-11-19T11:09:55.604Z,89.18
2023-11-19T11:13:01.547Z,89.75
2023-11-19T11:16:06.512Z,89.79
2023-11-19T11:19:10.598Z,90.24
2023-11-19T11:22:34.727Z,89.29
2023-11-19T11:25:47.344Z,89.16
2023-11-19T11:28:57.525Z,89.84
2023-11-19T11:32:09.508Z,89.60
2023-11-19T11:35:29.499Z,88.50
2023-11-19T11:38:38.652Z,89.36
2023-11-19T11:41:40.903Z,88.74
2023-11-19T11:45:04.659Z,88.08
2023-11-19T11:48:11.777Z,88.51
2023-11-19T11:51:13.562Z,87.86
2023-11-19T11:54:30.461Z,87.90
2023-11-19T11:57:37.617Z,88.58
2023-11-19T12:00:41.915Z,88.79
2023-11-19T12:03:51.753Z,88.66
2023-11-19T12:07:05.264Z,88.83
2023-11-19T12:10:10.438Z,88.08
2023-11-19T12:13:12.411Z,87.94
2023-11-19T12:16:14.964Z,88.39
2023-11-19T12:19:21.733Z,87.80
2023-11-19T12:22:27.234Z,88.06
2023-11-19T12:25:35.923Z,88.60
2023-11-19T12:28:37.575Z,88.86
2023-11-19T12:31:40.374Z,88.78
2023-11-19T12:34:42.837Z,89.04
2023-11-19T12:37:46.685Z,89.31
2023-11-19T12:41:04.153Z,88.10
2023-11-19T12:44:13.840Z,88.12
2023-11-19T12:47:19.425Z,88.04
2023-11-19T12:50:21.385Z,87.91
2023-11-19T12:53:23.967Z,88.08
2023-11-19T12:56:27.602Z,89.65
2023-11-19T12:59:29.467Z,88.19
2023-11-19T13:02:47.059Z,88.88
2023-11-19T13:05:49.482Z,87.86
2023-11-19T13:08:53.317Z,88.16
2023-11-19T13:11:57.515Z,88.83
2023-11-19T13:14:59.276Z,88.13
2023-11-19T13:18:02.153Z,88.07
2023-11-19T13:21:04.366Z,88.16
2023-11-19T13:24:08.964Z,88.20
2023-11-19T13:27:14.554Z,88.67
2023-11-19T13:33:32.888Z,89.43
2023-11-19T13:36:35.362Z,88.71
2023-11-19T13:39:37.195Z,88.77
2023-11-19T13:42:43.508Z,88.83
2023-11-19T13:45:49.172Z,89.05
2023-11-19T13:48:51.103Z,89.40
2023-11-19T13:51:53.115Z,89.07
2023-11-19T13:54:55.082Z,89.04
2023-11-19T13:57:58.686Z,88.80
2023-11-19T14:01:00.921Z,89.57
2023-11-19T14:04:05.754Z,89.38
2023-11-19T14:07:07.763Z,89.39
2023-11-19T14:10:10.735Z,89.38
2023-11-19T14:13:14.045Z,90.21
2023-11-19T14:16:17.151Z,90.16
2023-11-19T14:19:19.264Z,89.57
2023-11-19T14:22:21.270Z,89.46
2023-11-19T14:25:23.194Z,89.71
2023-11-19T14:28:26.703Z,89.95
2023-11-19T14:31:29.815Z,90.13
2023-11-19T14:34:31.908Z,89.94
2023-11-19T14:37:34.164Z,89.92
2023-11-19T14:43:43.465Z,89.55
2023-11-19T14:46:48.793Z,89.74
2023-11-19T14:49:51.265Z,89.77
2023-11-19T14:52:54.396Z,89.02
2023-11-19T14:55:56.802Z,89.81
2023-11-19T14:59:00.110Z,89.36
2023-11-19T15:02:04.144Z,89.73
2023-11-19T15:05:08.162Z,89.52
2023-11-19T15:08:09.975Z,89.79
2023-11-19T15:11:13.273Z,89.72
2023-11-19T15:14:17.694Z,89.74
2023-11-19T15:17:20.843Z,90.43
2023-11-19T15:20:23.418Z,90.30
2023-11-19T15:23:25.462Z,89.66
2023-11-19T15:26:27.681Z,89.47
2023-11-19T15:29:30.993Z,89.96
2023-11-19T15:32:33.183Z,90.25
2023-11-19T15:35:35.852Z,89.57
2023-11-19T15:41:43.873Z,89.32
2023-11-19T15:44:53.273Z,89.89
2023-11-19T15:48:01.784Z,89.78
2023-11-19T15:51:06.188Z,90.36
2023-11-19T15:54:09.786Z,89.91
2023-11-19T15:57:11.900Z,89.47
2023-11-19T16:00:16.744Z,90.19
2023-11-19T16:03:19.690Z,90.26
2023-11-19T16:06:25.992Z,89.40
2023-11-19T16:09:27.829Z,89.14
2023-11-19T16:12:30.296Z,90.23
2023-11-19T16:18:38.625Z,90.15
2023-11-19T16:21:40.583Z,89.21
2023-11-19T16:24:42.431Z,89.88
2023-11-19T16:27:44.800Z,89.42
2023-11-19T16:30:48.239Z,89.17
2023-11-19T16:33:50.272Z,89.25
2023-11-19T16:36:53.091Z,89.40
2023-11-19T16:39:54.798Z,90.16
2023-11-19T16:42:56.764Z,89.02
2023-11-19T16:45:59.998Z,89.33
2023-11-19T16:49:02.680Z,89.97
2023-11-19T16:52:04.719Z,90.05
2023-11-19T16:55:07.787Z,89.99
2023-11-19T16:58:09.615Z,89.61
2023-11-19T17:01:14.661Z,90.12
2023-11-19T17:04:16.980Z,90.49
2023-11-19T17:07:20.266Z,89.13
2023-11-19T17:10:22.023Z,89.35
2023-11-19T17:13:24.059Z,89.61
2023-11-19T17:16:27.592Z,89.42
2023-11-19T17:19:29.538Z,89.81
2023-11-19T17:22:35.148Z,89.65
2023-11-19T17:25:37.287Z,89.39
2023-11-19T17:28:39.892Z,89.21
2023-11-19T17:31:43.597Z,89.19
2023-11-19T17:34:45.662Z,89.10
2023-11-19T17:37:47.631Z,89.49
2023-11-19T17:40:50.452Z,89.50
2023-11-19T17:43:52.062Z,90.11
2023-11-19T17:46:55.574Z,89.80
2023-11-19T17:49:57.402Z,89.96
2023-11-19T17:52:59.277Z,90.20
2023-11-19T17:56:01.523Z,89.80
2023-11-19T17:59:05.133Z,90.04
2023-11-19T18:02:08.519Z,89.06
2023-11-19T18:05:10.823Z,89.18
2023-11-19T18:08:12.986Z,88.87
2023-11-19T18:11:15.027Z,89.26
2023-11-19T18:14:17.994Z,89.80
2023-11-19T18:17:21.690Z,89.13
2023-11-19T18:20:24.094Z,89.36
2023-11-19T18:23:26.423Z,89.99
2023-11-19T18:29:33.315Z,89.78
2023-11-19T18:32:36.651Z,89.82
2023-11-19T18:35:38.442Z,89.72
2023-11-19T18:38:43.638Z,88.86
2023-11-19T18:41:46.752Z,89.31
2023-11-19T18:44:48.658Z,89.73
2023-11-19T18:47:54.064Z,89.56
2023-11-19T18:50:56.733Z,89.02
2023-11-19T18:54:01.885Z,88.83
2023-11-19T18:57:04.189Z,88.75
2023-11-19T19:00:07.235Z,88.72
2023-11-19T19:03:11.963Z,89.00
2023-11-19T19:06:14.208Z,88.13
2023-11-19T19:09:18.105Z,88.07
2023-11-19T19:12:22.258Z,88.17
2023-11-19T19:15:24.482Z,88.53
2023-11-19T19:18:28.784Z,87.91
2023-11-19T19:21:31.275Z,87.72
2023-11-19T19:24:33.291Z,88.44
2023-11-19T19:27:35.864Z,87.45
2023-11-19T19:30:39.622Z,87.71
2023-11-19T19:33:43.192Z,87.23
2023-11-19T19:36:45.651Z,87.61
2023-11-19T19:39:48.101Z,88.39
2023-11-19T19:42:49.898Z,87.64
2023-11-19T19:45:53.208Z,87.56
2023-11-19T19:48:58.374Z,88.46
2023-11-19T19:52:00.130Z,87.59
2023-11-19T19:55:02.407Z,87.56
2023-11-19T19:58:04.244Z,88.35
2023-11-19T20:01:06.929Z,87.50
2023-11-19T20:04:11.123Z,87.44
2023-11-19T20:07:13.454Z,87.28
2023-11-19T20:10:15.929Z,87.73
2023-11-19T20:13:19.135Z,87.26
2023-11-19T20:16:22.181Z,88.10
2023-11-19T20:19:27.027Z,87.71
2023-11-19T20:22:29.190Z,86.94
2023-11-19T20:25:33.564Z,87.54
2023-11-19T20:28:36.602Z,88.03
2023-11-19T20:31:42.313Z,87.86
2023-11-19T20:34:46.846Z,87.96
2023-11-19T20:37:48.993Z,87.39
2023-11-19T20:40:51.261Z,87.18
2023-11-19T20:43:53.371Z,87.96
2023-11-19T20:46:55.240Z,87.76
2023-11-19T20:49:59.633Z,87.24
2023-11-19T20:53:03.380Z,87.73
2023-11-19T20:56:05.389Z,87.52
2023-11-19T20:59:09.126Z,87.51
2023-11-19T21:02:12.331Z,87.27
2023-11-19T21:05:16.592Z,87.76
2023-11-19T21:08:19.983Z,87.19
2023-11-19T21:11:23.264Z,87.09
2023-11-19T21:14:27.544Z,87.13
2023-11-19T21:17:29.477Z,87.70
2023-11-19T21:20:32.718Z,87.49
2023-11-19T21:23:34.555Z,87.29
2023-11-19T21:26:39.486Z,87.22
2023-11-19T21:29:42.287Z,87.21
2023-11-19T21:32:45.169Z,87.58
2023-11-19T21:35:48.437Z,87.35
2023-11-19T21:38:51.116Z,86.95
2023-11-19T21:41:53.513Z,88.11
2023-11-19T21:44:55.362Z,88.20
2023-11-19T21:48:00.535Z,88.01
2023-11-19T21:51:06.193Z,87.57
2023-11-19T21:54:08.927Z,87.97
2023-11-19T21:57:11.245Z,87.35
2023-11-19T22:00:14.439Z,87.29
2023-11-19T22:03:17.410Z,87.33
2023-11-19T22:06:20.645Z,86.89
2023-11-19T22:09:22.516Z,87.72
2023-11-19T22:12:24.470Z,87.69
2023-11-19T22:15:26.908Z,87.17
2023-11-19T22:18:29.853Z,88.41
2023-11-19T22:21:36.878Z,87.20
2023-11-19T22:24:39.896Z,87.48
2023-11-19T22:27:41.907Z,87.34
2023-11-19T22:30:43.954Z,87.79
2023-11-19T22:33:45.887Z,87.71
2023-11-19T22:36:50.523Z,87.79
2023-11-19T22:39:52.611Z,87.89
2023-11-19T22:42:54.901Z,88.52
2023-11-19T22:45:59.080Z,88.16
2023-11-19T22:49:01.013Z,88.35
2023-11-19T22:52:05.636Z,87.92
2023-11-19T22:55:10.329Z,88.41
2023-11-19T22:58:12.673Z,88.13
2023-11-19T23:01:14.689Z,88.32
2023-11-19T23:04:17.487Z,87.87
2023-11-19T23:07:20.842Z,88.52
2023-11-19T23:10:24.395Z,88.10
2023-11-19T23:13:26.645Z,87.90
2023-11-19T23:16:29.792Z,87.64
2023-11-19T23:19:34.196Z,88.62
2023-11-19T23:22:38.675Z,87.64
2023-11-19T23:25:40.559Z,87.66
2023-11-19T23:28:43.375Z,87.77
2023-11-19T23:31:46.027Z,87.79
2023-11-19T23:34:48.296Z,87.94
2023-11-19T23:37:52.634Z,87.72
2023-11-19T23:40:55.720Z,87.91
2023-11-19T23:43:58.293Z,88.33
2023-11-19T23:47:00.872Z,88.22
2023-11-19T23:50:06.361Z,88.04
2023-11-19T23:53:09.932Z,87.53
2023-11-19T23:56:11.913Z,87.27
2023-11-19T23:59:13.992Z,87.30
